createdAt,value
2017-11-09T00:00:11.157Z,1014.76
2017-11-09T00:01:11.148Z,1014.79
2017-11-09T00:02:14.065Z,1014.72
2017-11-09T00:03:11.138Z,1014.74
2017-11-09T00:04:11.122Z,1014.78
2017-11-09T00:05:11.108Z,1014.71
2017-11-09T00:06:11.102Z,1014.75
2017-11-09T00:07:11.097Z,1014.74
2017-11-09T00:08:11.085Z,1014.77
2017-11-09T00:09:11.574Z,1014.81
2017-11-09T00:10:11.067Z,1014.75
2017-11-09T00:11:11.049Z,1014.81
2017-11-09T00:12:11.046Z,1014.77
2017-11-09T00:13:11.035Z,1014.80
2017-11-09T00:14:11.576Z,1014.79
2017-11-09T00:15:11.567Z,1014.77
2017-11-09T00:16:11.016Z,1014.79
2017-11-09T00:17:11.003Z,1014.78
2017-11-09T00:18:10.993Z,1014.80
2017-11-09T00:19:10.986Z,1014.80
2017-11-09T00:20:10.978Z,1014.83
2017-11-09T00:21:10.962Z,1014.82
2017-11-09T00:22:10.957Z,1014.80
2017-11-09T00:23:10.951Z,1014.82
2017-11-09T00:24:10.939Z,1014.81
2017-11-09T00:25:10.921Z,1014.80
2017-11-09T00:26:10.946Z,1014.83
2017-11-09T00:27:10.906Z,1014.87
2017-11-09T00:28:11.580Z,1014.84
2017-11-09T00:29:10.889Z,1014.83
2017-11-09T00:30:10.899Z,1014.88
2017-11-09T00:31:10.873Z,1014.87
2017-11-09T00:32:10.865Z,1014.86
2017-11-09T00:33:10.868Z,1014.85
2017-11-09T00:34:10.847Z,1014.86
2017-11-09T00:35:10.841Z,1014.88
2017-11-09T00:36:10.831Z,1014.86
2017-11-09T00:37:11.588Z,1014.85
2017-11-09T00:38:10.810Z,1014.88
2017-11-09T00:39:10.799Z,1014.92
2017-11-09T00:40:10.792Z,1014.90
2017-11-09T00:41:10.784Z,1014.89
2017-11-09T00:42:10.772Z,1014.92
2017-11-09T00:43:10.759Z,1014.91
2017-11-09T00:44:10.751Z,1014.86
2017-11-09T00:45:10.742Z,1014.89
2017-11-09T00:46:10.733Z,1014.90
2017-11-09T00:47:10.726Z,1014.85
2017-11-09T00:48:11.589Z,1014.84
2017-11-09T00:49:10.720Z,1014.87
2017-11-09T00:50:10.697Z,1014.89
2017-11-09T00:51:10.681Z,1014.86
2017-11-09T00:52:10.686Z,1014.89
2017-11-09T00:53:10.670Z,1014.89
2017-11-09T00:54:10.651Z,1014.87
2017-11-09T00:55:10.647Z,1014.90
2017-11-09T00:56:10.655Z,1014.91
2017-11-09T00:57:10.632Z,1014.95
2017-11-09T00:58:10.620Z,1014.92
2017-11-09T00:59:10.619Z,1014.93
2017-11-09T01:00:10.603Z,1014.95
2017-11-09T01:01:10.599Z,1014.93
2017-11-09T01:02:10.607Z,1014.95
2017-11-09T01:03:10.581Z,1014.95
2017-11-09T01:04:10.593Z,1014.96
2017-11-09T01:05:10.563Z,1014.98
2017-11-09T01:06:10.566Z,1014.99
2017-11-09T01:07:10.541Z,1014.99
2017-11-09T01:08:10.533Z,1015.02
2017-11-09T01:09:10.521Z,1014.99
2017-11-09T01:10:10.521Z,1015.02
2017-11-09T01:11:10.502Z,1015.03
2017-11-09T01:12:10.490Z,1015.04
2017-11-09T01:13:10.487Z,1015.08
2017-11-09T01:14:10.480Z,1015.09
2017-11-09T01:15:10.470Z,1015.10
2017-11-09T01:16:10.460Z,1015.06
2017-11-09T01:17:11.102Z,1015.08
2017-11-09T01:18:10.443Z,1015.05
2017-11-09T01:19:10.439Z,1015.10
2017-11-09T01:20:11.099Z,1015.08
2017-11-09T01:21:11.101Z,1015.05
2017-11-09T01:22:10.403Z,1015.08
2017-11-09T01:23:10.397Z,1015.08
2017-11-09T01:24:10.384Z,1015.09
2017-11-09T01:25:10.380Z,1015.09
2017-11-09T01:26:10.369Z,1015.09
2017-11-09T01:27:11.102Z,1015.14
2017-11-09T01:28:10.357Z,1015.13
2017-11-09T01:29:10.340Z,1015.15
2017-11-09T01:30:10.331Z,1015.17
2017-11-09T01:31:10.324Z,1015.18
2017-11-09T01:32:10.317Z,1015.18
2017-11-09T01:33:10.305Z,1015.21
2017-11-09T01:34:10.337Z,1015.25
2017-11-09T01:35:11.096Z,1015.24
2017-11-09T01:36:10.289Z,1015.29
2017-11-09T01:37:10.269Z,1015.28
2017-11-09T01:38:10.255Z,1015.27
2017-11-09T01:39:10.250Z,1015.26
2017-11-09T01:40:10.243Z,1015.22
2017-11-09T01:41:10.240Z,1015.23
2017-11-09T01:42:10.221Z,1015.24
2017-11-09T01:43:10.217Z,1015.19
2017-11-09T01:44:10.207Z,1015.24
2017-11-09T01:45:10.209Z,1015.22
2017-11-09T01:46:10.185Z,1015.24
2017-11-09T01:47:10.179Z,1015.25
2017-11-09T01:48:11.113Z,1015.24
2017-11-09T01:49:10.161Z,1015.27
2017-11-09T01:50:10.152Z,1015.29
2017-11-09T01:51:10.139Z,1015.30
2017-11-09T01:52:10.130Z,1015.31
2017-11-09T01:53:11.110Z,1015.32
2017-11-09T01:54:10.115Z,1015.34
2017-11-09T01:55:10.111Z,1015.30
2017-11-09T01:56:10.103Z,1015.28
2017-11-09T01:57:10.088Z,1015.28
2017-11-09T01:58:10.104Z,1015.30
2017-11-09T01:59:10.080Z,1015.31
2017-11-09T02:00:10.617Z,1015.30
2017-11-09T02:01:10.050Z,1015.29
2017-11-09T02:02:10.052Z,1015.27
2017-11-09T02:03:10.031Z,1015.25
2017-11-09T02:04:10.018Z,1015.28
2017-11-09T02:05:10.009Z,1015.29
2017-11-09T02:06:09.998Z,1015.26
2017-11-09T02:07:10.618Z,1015.25
2017-11-09T02:08:09.980Z,1015.29
2017-11-09T02:09:09.981Z,1015.28
2017-11-09T02:10:09.984Z,1015.26
2017-11-09T02:11:09.958Z,1015.28
2017-11-09T02:12:09.960Z,1015.32
2017-11-09T02:13:09.941Z,1015.33
2017-11-09T02:14:10.618Z,1015.32
2017-11-09T02:15:09.923Z,1015.32
2017-11-09T02:16:09.912Z,1015.35
2017-11-09T02:17:09.904Z,1015.31
2017-11-09T02:18:09.895Z,1015.31
2017-11-09T02:19:09.881Z,1015.29
2017-11-09T02:20:09.875Z,1015.29
2017-11-09T02:21:09.867Z,1015.30
2017-11-09T02:22:09.860Z,1015.28
2017-11-09T02:23:09.848Z,1015.27
2017-11-09T02:24:09.836Z,1015.30
2017-11-09T02:25:09.831Z,1015.33
2017-11-09T02:26:09.824Z,1015.31
2017-11-09T02:27:09.815Z,1015.32
2017-11-09T02:28:09.810Z,1015.35
2017-11-09T02:29:09.793Z,1015.36
2017-11-09T02:30:09.785Z,1015.37
2017-11-09T02:31:09.796Z,1015.34
2017-11-09T02:32:09.769Z,1015.32
2017-11-09T02:33:09.760Z,1015.32
2017-11-09T02:34:09.742Z,1015.37
2017-11-09T02:35:09.742Z,1015.35
2017-11-09T02:36:09.729Z,1015.38
2017-11-09T02:37:09.725Z,1015.42
2017-11-09T02:38:09.709Z,1015.42
2017-11-09T02:39:09.699Z,1015.42
2017-11-09T02:40:09.693Z,1015.42
2017-11-09T02:41:09.683Z,1015.41
2017-11-09T02:42:09.677Z,1015.45
2017-11-09T02:43:09.663Z,1015.46
2017-11-09T02:44:09.660Z,1015.44
2017-11-09T02:45:09.649Z,1015.45
2017-11-09T02:46:09.639Z,1015.45
2017-11-09T02:47:09.632Z,1015.45
2017-11-09T02:48:09.627Z,1015.41
2017-11-09T02:49:09.617Z,1015.39
2017-11-09T02:50:09.603Z,1015.38
2017-11-09T02:51:09.598Z,1015.41
2017-11-09T02:52:10.132Z,1015.40
2017-11-09T02:53:09.573Z,1015.38
2017-11-09T02:54:09.577Z,1015.40
2017-11-09T02:55:09.564Z,1015.40
2017-11-09T02:56:09.550Z,1015.41
2017-11-09T02:57:09.546Z,1015.41
2017-11-09T02:58:09.529Z,1015.47
2017-11-09T02:59:09.518Z,1015.42
2017-11-09T03:00:09.512Z,1015.41
2017-11-09T03:01:10.134Z,1015.44
2017-11-09T03:02:09.492Z,1015.42
2017-11-09T03:03:09.484Z,1015.44
2017-11-09T03:04:09.473Z,1015.42
2017-11-09T03:05:09.474Z,1015.44
2017-11-09T03:06:09.457Z,1015.47
2017-11-09T03:07:09.450Z,1015.49
2017-11-09T03:08:09.443Z,1015.48
2017-11-09T03:09:09.431Z,1015.50
2017-11-09T03:10:09.424Z,1015.56
2017-11-09T03:11:09.437Z,1015.51
2017-11-09T03:12:09.409Z,1015.58
2017-11-09T03:13:09.400Z,1015.54
2017-11-09T03:14:09.385Z,1015.57
2017-11-09T03:15:09.383Z,1015.55
2017-11-09T03:16:09.366Z,1015.61
2017-11-09T03:17:09.358Z,1015.59
2017-11-09T03:18:09.367Z,1015.52
2017-11-09T03:19:09.352Z,1015.60
2017-11-09T03:20:10.141Z,1015.63
2017-11-09T03:21:09.322Z,1015.61
2017-11-09T03:22:09.317Z,1015.58
2017-11-09T03:23:09.306Z,1015.60
2017-11-09T03:24:09.299Z,1015.63
2017-11-09T03:25:09.295Z,1015.57
2017-11-09T03:26:09.280Z,1015.58
2017-11-09T03:27:09.271Z,1015.61
2017-11-09T03:28:09.262Z,1015.56
2017-11-09T03:29:09.251Z,1015.58
2017-11-09T03:30:09.249Z,1015.64
2017-11-09T03:31:09.233Z,1015.61
2017-11-09T03:32:09.219Z,1015.56
2017-11-09T03:33:09.206Z,1015.56
2017-11-09T03:34:09.201Z,1015.54
2017-11-09T03:35:09.194Z,1015.53
2017-11-09T03:36:09.186Z,1015.61
2017-11-09T03:37:09.183Z,1015.64
2017-11-09T03:38:09.189Z,1015.68
2017-11-09T03:39:10.154Z,1015.68
2017-11-09T03:40:09.152Z,1015.65
2017-11-09T03:41:09.143Z,1015.69
2017-11-09T03:42:09.134Z,1015.70
2017-11-09T03:43:09.125Z,1015.71
2017-11-09T03:44:09.120Z,1015.68
2017-11-09T03:45:09.657Z,1015.71
2017-11-09T03:46:09.099Z,1015.74
2017-11-09T03:47:09.085Z,1015.69
2017-11-09T03:48:09.077Z,1015.69
2017-11-09T03:49:09.067Z,1015.70
2017-11-09T03:50:09.059Z,1015.66
2017-11-09T03:51:09.058Z,1015.74
2017-11-09T03:52:09.036Z,1015.73
2017-11-09T03:53:09.031Z,1015.68
2017-11-09T03:54:09.027Z,1015.68
2017-11-09T03:55:09.022Z,1015.67
2017-11-09T03:56:09.007Z,1015.69
2017-11-09T03:57:09.008Z,1015.70
2017-11-09T03:58:09.651Z,1015.73
2017-11-09T03:59:08.974Z,1015.77
2017-11-09T04:00:08.969Z,1015.77
2017-11-09T04:01:08.959Z,1015.78
2017-11-09T04:02:08.953Z,1015.77
2017-11-09T04:03:08.950Z,1015.77
2017-11-09T04:04:08.936Z,1015.76
2017-11-09T04:05:08.924Z,1015.79
2017-11-09T04:06:08.920Z,1015.78
2017-11-09T04:07:09.664Z,1015.82
2017-11-09T04:08:08.898Z,1015.81
2017-11-09T04:09:08.903Z,1015.84
2017-11-09T04:10:08.889Z,1015.85
2017-11-09T04:11:08.868Z,1015.87
2017-11-09T04:12:08.875Z,1015.85
2017-11-09T04:13:09.669Z,1015.86
2017-11-09T04:14:08.844Z,1015.87
2017-11-09T04:15:09.664Z,1015.84
2017-11-09T04:16:08.842Z,1015.80
2017-11-09T04:17:08.813Z,1015.83
2017-11-09T04:18:08.828Z,1015.84
2017-11-09T04:19:08.799Z,1015.86
2017-11-09T04:20:08.789Z,1015.84
2017-11-09T04:21:08.776Z,1015.80
2017-11-09T04:22:08.770Z,1015.83
2017-11-09T04:23:08.765Z,1015.88
2017-11-09T04:24:08.754Z,1015.89
2017-11-09T04:25:08.752Z,1015.89
2017-11-09T04:26:08.733Z,1015.90
2017-11-09T04:27:08.722Z,1015.89
2017-11-09T04:28:08.714Z,1015.93
2017-11-09T04:29:08.715Z,1015.92
2017-11-09T04:30:08.695Z,1015.88
2017-11-09T04:31:08.686Z,1015.89
2017-11-09T04:32:08.677Z,1015.93
2017-11-09T04:33:08.671Z,1015.89
2017-11-09T04:34:09.174Z,1015.86
2017-11-09T04:35:08.654Z,1015.87
2017-11-09T04:36:08.652Z,1015.88
2017-11-09T04:37:08.659Z,1015.89
2017-11-09T04:38:08.626Z,1015.92
2017-11-09T04:39:08.618Z,1015.92
2017-11-09T04:40:09.175Z,1015.96
2017-11-09T04:41:08.597Z,1015.92
2017-11-09T04:42:08.585Z,1015.94
2017-11-09T04:43:08.583Z,1015.91
2017-11-09T04:44:08.569Z,1015.93
2017-11-09T04:45:08.558Z,1015.95
2017-11-09T04:46:08.545Z,1015.97
2017-11-09T04:47:11.176Z,1015.94
2017-11-09T04:48:08.535Z,1015.96
2017-11-09T04:49:08.549Z,1015.93
2017-11-09T04:50:09.181Z,1015.96
2017-11-09T04:51:08.510Z,1015.95
2017-11-09T04:52:09.179Z,1015.97
2017-11-09T04:53:08.490Z,1015.99
2017-11-09T04:54:08.480Z,1015.99
2017-11-09T04:55:08.471Z,1015.98
2017-11-09T04:56:08.465Z,1016.02
2017-11-09T04:57:11.182Z,1015.98
2017-11-09T04:58:08.438Z,1015.97
2017-11-09T04:59:08.430Z,1016.00
2017-11-09T05:00:08.423Z,1016.00
2017-11-09T05:01:08.416Z,1016.00
2017-11-09T05:02:08.407Z,1016.04
2017-11-09T05:03:09.183Z,1015.98
2017-11-09T05:04:11.186Z,1015.97
2017-11-09T05:05:08.381Z,1015.95
2017-11-09T05:06:08.369Z,1015.97
2017-11-09T05:07:08.374Z,1015.97
2017-11-09T05:08:08.352Z,1015.99
2017-11-09T05:09:08.340Z,1016.01
2017-11-09T05:10:08.331Z,1015.99
2017-11-09T05:11:08.325Z,1016.02
2017-11-09T05:12:08.313Z,1016.02
2017-11-09T05:13:08.303Z,1016.05
2017-11-09T05:14:11.187Z,1015.99
2017-11-09T05:15:08.292Z,1016.03
2017-11-09T05:16:08.273Z,1016.03
2017-11-09T05:17:08.271Z,1016.00
2017-11-09T05:18:08.264Z,1016.01
2017-11-09T05:19:08.253Z,1016.02
2017-11-09T05:20:08.241Z,1016.04
2017-11-09T05:21:08.235Z,1016.01
2017-11-09T05:22:08.224Z,1015.97
2017-11-09T05:23:08.213Z,1015.99
2017-11-09T05:24:08.204Z,1015.97
2017-11-09T05:25:08.199Z,1015.97
2017-11-09T05:26:08.188Z,1016.00
2017-11-09T05:27:08.174Z,1015.99
2017-11-09T05:28:08.173Z,1015.96
2017-11-09T05:29:08.157Z,1015.94
2017-11-09T05:30:08.155Z,1015.98
2017-11-09T05:31:08.142Z,1015.97
2017-11-09T05:32:08.137Z,1015.95
2017-11-09T05:33:08.123Z,1015.95
2017-11-09T05:34:08.112Z,1015.94
2017-11-09T05:35:08.108Z,1015.97
2017-11-09T05:36:08.098Z,1015.93
2017-11-09T05:37:08.110Z,1015.89
2017-11-09T05:38:08.076Z,1015.91
2017-11-09T05:39:08.061Z,1015.89
2017-11-09T05:40:08.058Z,1015.87
2017-11-09T05:41:08.048Z,1015.85
2017-11-09T05:42:08.039Z,1015.88
2017-11-09T05:43:08.042Z,1015.84
2017-11-09T05:44:08.047Z,1015.91
2017-11-09T05:45:08.021Z,1015.88
2017-11-09T05:46:08.005Z,1015.89
2017-11-09T05:47:08.000Z,1015.90
2017-11-09T05:48:07.991Z,1015.93
2017-11-09T05:49:08.712Z,1015.92
2017-11-09T05:50:07.974Z,1015.94
2017-11-09T05:51:07.973Z,1015.88
2017-11-09T05:52:07.955Z,1015.88
2017-11-09T05:53:08.705Z,1015.93
2017-11-09T05:54:07.932Z,1015.96
2017-11-09T05:55:07.930Z,1015.94
2017-11-09T05:56:07.925Z,1015.92
2017-11-09T05:57:07.906Z,1015.93
2017-11-09T05:58:07.907Z,1015.91
2017-11-09T05:59:07.888Z,1015.91
2017-11-09T06:00:07.874Z,1015.88
2017-11-09T06:01:07.868Z,1015.87
2017-11-09T06:02:07.873Z,1015.86
2017-11-09T06:03:07.858Z,1015.90
2017-11-09T06:04:07.853Z,1015.95
2017-11-09T06:05:07.837Z,1016.00
2017-11-09T06:06:07.830Z,1015.95
2017-11-09T06:07:07.819Z,1015.99
2017-11-09T06:08:08.714Z,1015.99
2017-11-09T06:09:07.800Z,1016.03
2017-11-09T06:10:07.794Z,1016.05
2017-11-09T06:11:08.709Z,1016.07
2017-11-09T06:12:07.784Z,1016.05
2017-11-09T06:13:08.081Z,1016.05
2017-11-09T06:14:07.761Z,1016.11
2017-11-09T06:15:07.756Z,1016.09
2017-11-09T06:16:07.741Z,1016.13
2017-11-09T06:17:07.737Z,1016.10
2017-11-09T06:18:07.718Z,1016.09
2017-11-09T06:19:07.715Z,1016.16
2017-11-09T06:20:07.703Z,1016.17
2017-11-09T06:21:08.221Z,1016.18
2017-11-09T06:22:07.695Z,1016.20
2017-11-09T06:23:07.676Z,1016.23
2017-11-09T06:24:07.668Z,1016.23
2017-11-09T06:25:07.655Z,1016.26
2017-11-09T06:26:07.654Z,1016.26
2017-11-09T06:27:07.642Z,1016.24
2017-11-09T06:28:07.637Z,1016.27
2017-11-09T06:29:07.635Z,1016.25
2017-11-09T06:30:08.214Z,1016.27
2017-11-09T06:31:07.616Z,1016.26
2017-11-09T06:32:07.598Z,1016.26
2017-11-09T06:33:07.597Z,1016.24
2017-11-09T06:34:07.576Z,1016.31
2017-11-09T06:35:07.573Z,1016.30
2017-11-09T06:36:07.559Z,1016.35
2017-11-09T06:37:07.550Z,1016.30
2017-11-09T06:38:07.541Z,1016.35
2017-11-09T06:39:07.532Z,1016.31
2017-11-09T06:40:07.523Z,1016.34
2017-11-09T06:41:08.217Z,1016.32
2017-11-09T06:42:07.511Z,1016.37
2017-11-09T06:43:07.498Z,1016.37
2017-11-09T06:44:07.492Z,1016.39
2017-11-09T06:45:07.484Z,1016.41
2017-11-09T06:46:07.477Z,1016.43
2017-11-09T06:47:07.541Z,1016.42
2017-11-09T06:48:07.461Z,1016.44
2017-11-09T06:49:07.447Z,1016.44
2017-11-09T06:50:07.434Z,1016.47
2017-11-09T06:51:07.431Z,1016.45
2017-11-09T06:52:07.897Z,1016.46
2017-11-09T06:53:07.406Z,1016.44
2017-11-09T06:54:07.396Z,1016.48
2017-11-09T06:55:07.390Z,1016.51
2017-11-09T06:56:07.606Z,1016.48
2017-11-09T06:57:07.390Z,1016.50
2017-11-09T06:58:07.366Z,1016.49
2017-11-09T06:59:07.359Z,1016.48
2017-11-09T07:00:07.349Z,1016.47
2017-11-09T07:01:07.335Z,1016.50
2017-11-09T07:02:07.329Z,1016.51
2017-11-09T07:03:08.238Z,1016.49
2017-11-09T07:04:07.314Z,1016.48
2017-11-09T07:05:07.309Z,1016.51
2017-11-09T07:06:07.291Z,1016.54
2017-11-09T07:07:07.283Z,1016.51
2017-11-09T07:08:07.267Z,1016.53
2017-11-09T07:09:07.264Z,1016.53
2017-11-09T07:10:07.256Z,1016.53
2017-11-09T07:11:07.255Z,1016.56
2017-11-09T07:12:07.246Z,1016.51
2017-11-09T07:13:07.231Z,1016.53
2017-11-09T07:14:07.231Z,1016.55
2017-11-09T07:15:07.215Z,1016.56
2017-11-09T07:16:07.210Z,1016.55
2017-11-09T07:17:07.732Z,1016.59
2017-11-09T07:18:07.189Z,1016.57
2017-11-09T07:19:07.229Z,1016.64
2017-11-09T07:20:07.186Z,1016.66
2017-11-09T07:21:07.158Z,1016.66
2017-11-09T07:22:07.141Z,1016.68
2017-11-09T07:23:07.157Z,1016.76
2017-11-09T07:24:07.134Z,1016.76
2017-11-09T07:25:07.133Z,1016.77
2017-11-09T07:26:07.114Z,1016.81
2017-11-09T07:27:07.108Z,1016.81
2017-11-09T07:28:07.103Z,1016.84
2017-11-09T07:29:07.305Z,1016.83
2017-11-09T07:30:07.085Z,1016.82
2017-11-09T07:31:07.077Z,1016.85
2017-11-09T07:32:07.415Z,1016.91
2017-11-09T07:33:07.048Z,1016.90
2017-11-09T07:34:07.047Z,1016.90
2017-11-09T07:35:07.759Z,1016.98
2017-11-09T07:36:07.030Z,1016.97
2017-11-09T07:37:07.748Z,1016.96
2017-11-09T07:38:07.008Z,1016.98
2017-11-09T07:39:07.000Z,1016.98
2017-11-09T07:40:06.992Z,1017.00
2017-11-09T07:41:06.982Z,1016.94
2017-11-09T07:42:06.975Z,1016.94
2017-11-09T07:43:06.960Z,1016.98
2017-11-09T07:44:06.960Z,1016.97
2017-11-09T07:45:06.969Z,1016.95
2017-11-09T07:46:06.953Z,1016.95
2017-11-09T07:47:06.932Z,1017.02
2017-11-09T07:48:06.935Z,1016.99
2017-11-09T07:49:06.910Z,1017.03
2017-11-09T07:50:06.910Z,1017.00
2017-11-09T07:51:06.899Z,1016.98
2017-11-09T07:52:06.889Z,1017.02
2017-11-09T07:53:06.879Z,1017.04
2017-11-09T07:54:06.871Z,1017.01
2017-11-09T07:55:06.859Z,1017.01
2017-11-09T07:56:06.843Z,1017.05
2017-11-09T07:57:06.845Z,1017.09
2017-11-09T07:58:06.832Z,1017.05
2017-11-09T07:59:06.823Z,1017.03
2017-11-09T08:00:06.819Z,1017.07
2017-11-09T08:01:06.811Z,1017.10
2017-11-09T08:02:07.754Z,1017.09
2017-11-09T08:03:06.789Z,1017.09
2017-11-09T08:04:06.788Z,1017.12
2017-11-09T08:05:06.768Z,1017.13
2017-11-09T08:06:06.762Z,1017.11
2017-11-09T08:07:07.254Z,1017.12
2017-11-09T08:08:06.772Z,1017.10
2017-11-09T08:09:06.734Z,1017.09
2017-11-09T08:10:06.726Z,1017.12
2017-11-09T08:11:06.717Z,1017.12
2017-11-09T08:12:06.705Z,1017.11
2017-11-09T08:13:06.704Z,1017.15
2017-11-09T08:14:06.690Z,1017.17
2017-11-09T08:15:06.682Z,1017.17
2017-11-09T08:16:06.677Z,1017.20
2017-11-09T08:17:06.676Z,1017.17
2017-11-09T08:18:06.649Z,1017.19
2017-11-09T08:19:06.644Z,1017.23
2017-11-09T08:20:06.637Z,1017.20
2017-11-09T08:21:06.633Z,1017.23
2017-11-09T08:22:06.724Z,1017.26
2017-11-09T08:23:06.601Z,1017.24
2017-11-09T08:24:06.600Z,1017.22
2017-11-09T08:25:06.590Z,1017.26
2017-11-09T08:26:06.603Z,1017.24
2017-11-09T08:27:06.576Z,1017.25
2017-11-09T08:28:06.571Z,1017.25
2017-11-09T08:29:06.557Z,1017.25
2017-11-09T08:30:06.554Z,1017.25
2017-11-09T08:31:06.540Z,1017.23
2017-11-09T08:32:06.540Z,1017.27
2017-11-09T08:33:06.521Z,1017.26
2017-11-09T08:34:06.511Z,1017.25
2017-11-09T08:35:06.524Z,1017.24
2017-11-09T08:36:06.494Z,1017.24
2017-11-09T08:37:06.485Z,1017.31
2017-11-09T08:38:06.476Z,1017.31
2017-11-09T08:39:06.472Z,1017.30
2017-11-09T08:40:07.261Z,1017.36
2017-11-09T08:41:06.454Z,1017.37
2017-11-09T08:42:06.447Z,1017.39
2017-11-09T08:43:06.437Z,1017.37
2017-11-09T08:44:06.457Z,1017.35
2017-11-09T08:45:06.414Z,1017.36
2017-11-09T08:46:06.420Z,1017.42
2017-11-09T08:47:06.408Z,1017.41
2017-11-09T08:48:06.392Z,1017.37
2017-11-09T08:49:06.381Z,1017.43
2017-11-09T08:50:06.369Z,1017.42
2017-11-09T08:51:07.278Z,1017.44
2017-11-09T08:52:06.370Z,1017.41
2017-11-09T08:53:06.348Z,1017.41
2017-11-09T08:54:07.263Z,1017.40
2017-11-09T08:55:06.333Z,1017.39
2017-11-09T08:56:06.320Z,1017.39
2017-11-09T08:57:06.312Z,1017.40
2017-11-09T08:58:06.302Z,1017.39
2017-11-09T08:59:06.298Z,1017.36
2017-11-09T09:00:06.286Z,1017.39
2017-11-09T09:01:07.273Z,1017.35
2017-11-09T09:02:06.272Z,1017.32
2017-11-09T09:03:06.282Z,1017.33
2017-11-09T09:04:06.784Z,1017.37
2017-11-09T09:05:06.243Z,1017.35
2017-11-09T09:06:06.231Z,1017.34
2017-11-09T09:07:06.223Z,1017.38
2017-11-09T09:08:06.215Z,1017.36
2017-11-09T09:09:06.206Z,1017.38
2017-11-09T09:10:06.217Z,1017.35
2017-11-09T09:11:06.210Z,1017.32
2017-11-09T09:12:06.176Z,1017.35
2017-11-09T09:13:06.777Z,1017.36
2017-11-09T09:14:06.165Z,1017.33
2017-11-09T09:15:06.156Z,1017.34
2017-11-09T09:16:06.149Z,1017.35
2017-11-09T09:17:06.157Z,1017.39
2017-11-09T09:18:06.125Z,1017.38
2017-11-09T09:19:06.115Z,1017.37
2017-11-09T09:20:06.111Z,1017.36
2017-11-09T09:21:06.116Z,1017.35
2017-11-09T09:22:06.109Z,1017.33
2017-11-09T09:23:06.091Z,1017.34
2017-11-09T09:24:06.079Z,1017.35
2017-11-09T09:25:06.077Z,1017.34
2017-11-09T09:26:06.077Z,1017.33
2017-11-09T09:27:06.060Z,1017.33
2017-11-09T09:28:06.042Z,1017.36
2017-11-09T09:29:06.052Z,1017.38
2017-11-09T09:30:06.035Z,1017.39
2017-11-09T09:31:06.014Z,1017.34
2017-11-09T09:32:06.014Z,1017.37
2017-11-09T09:33:05.998Z,1017.37
2017-11-09T09:34:06.004Z,1017.35
2017-11-09T09:35:06.000Z,1017.39
2017-11-09T09:36:05.984Z,1017.40
2017-11-09T09:37:05.971Z,1017.38
2017-11-09T09:38:05.970Z,1017.43
2017-11-09T09:39:05.963Z,1017.40
2017-11-09T09:40:05.950Z,1017.44
2017-11-09T09:41:05.960Z,1017.39
2017-11-09T09:42:05.931Z,1017.41
2017-11-09T09:43:05.931Z,1017.42
2017-11-09T09:44:06.793Z,1017.44
2017-11-09T09:45:05.904Z,1017.43
2017-11-09T09:46:08.787Z,1017.44
2017-11-09T09:47:06.787Z,1017.46
2017-11-09T09:48:05.881Z,1017.50
2017-11-09T09:49:05.883Z,1017.56
2017-11-09T09:50:05.868Z,1017.56
2017-11-09T09:51:05.866Z,1017.58
2017-11-09T09:52:05.852Z,1017.60
2017-11-09T09:53:05.847Z,1017.57
2017-11-09T09:54:05.851Z,1017.63
2017-11-09T09:55:06.797Z,1017.60
2017-11-09T09:56:05.834Z,1017.62
2017-11-09T09:57:06.799Z,1017.62
2017-11-09T09:58:05.807Z,1017.66
2017-11-09T09:59:05.804Z,1017.66
2017-11-09T10:00:05.797Z,1017.66
2017-11-09T10:01:05.786Z,1017.65
2017-11-09T10:02:05.772Z,1017.66
2017-11-09T10:03:05.768Z,1017.69
2017-11-09T10:04:05.760Z,1017.72
2017-11-09T10:05:05.757Z,1017.68
2017-11-09T10:06:05.739Z,1017.63
2017-11-09T10:07:05.740Z,1017.68
2017-11-09T10:08:05.729Z,1017.64
2017-11-09T10:09:05.725Z,1017.61
2017-11-09T10:10:05.727Z,1017.65
2017-11-09T10:11:05.701Z,1017.63
2017-11-09T10:12:08.301Z,1017.66
2017-11-09T10:13:05.693Z,1017.61
2017-11-09T10:14:05.689Z,1017.61
2017-11-09T10:15:05.682Z,1017.64
2017-11-09T10:16:05.674Z,1017.63
2017-11-09T10:17:05.675Z,1017.59
2017-11-09T10:18:05.656Z,1017.57
2017-11-09T10:19:05.649Z,1017.53
2017-11-09T10:20:05.647Z,1017.53
2017-11-09T10:21:05.633Z,1017.58
2017-11-09T10:22:05.628Z,1017.58
2017-11-09T10:23:05.623Z,1017.56
2017-11-09T10:24:05.619Z,1017.58
2017-11-09T10:25:06.314Z,1017.59
2017-11-09T10:26:05.592Z,1017.56
2017-11-09T10:27:05.594Z,1017.63
2017-11-09T10:28:05.582Z,1017.62
2017-11-09T10:29:05.581Z,1017.58
2017-11-09T10:30:05.568Z,1017.60
2017-11-09T10:31:05.563Z,1017.57
2017-11-09T10:32:05.576Z,1017.54
2017-11-09T10:33:05.546Z,1017.49
2017-11-09T10:34:05.541Z,1017.52
2017-11-09T10:35:05.537Z,1017.52
2017-11-09T10:36:05.525Z,1017.53
2017-11-09T10:37:05.520Z,1017.54
2017-11-09T10:38:05.515Z,1017.54
2017-11-09T10:39:05.502Z,1017.58
2017-11-09T10:40:05.497Z,1017.50
2017-11-09T10:41:05.488Z,1017.54
2017-11-09T10:42:05.476Z,1017.52
2017-11-09T10:43:05.476Z,1017.50
2017-11-09T10:44:05.473Z,1017.50
2017-11-09T10:45:05.458Z,1017.53
2017-11-09T10:46:05.452Z,1017.53
2017-11-09T10:47:06.310Z,1017.53
2017-11-09T10:48:05.442Z,1017.51
2017-11-09T10:49:05.432Z,1017.48
2017-11-09T10:50:05.426Z,1017.51
2017-11-09T10:51:05.421Z,1017.50
2017-11-09T10:52:05.421Z,1017.48
2017-11-09T10:53:06.315Z,1017.47
2017-11-09T10:54:05.396Z,1017.47
2017-11-09T10:55:05.384Z,1017.46
2017-11-09T10:56:05.382Z,1017.48
2017-11-09T10:57:05.375Z,1017.44
2017-11-09T10:58:05.372Z,1017.44
2017-11-09T10:59:05.360Z,1017.43
2017-11-09T11:00:05.362Z,1017.42
2017-11-09T11:01:05.345Z,1017.43
2017-11-09T11:02:05.338Z,1017.41
2017-11-09T11:03:05.326Z,1017.44
2017-11-09T11:04:05.323Z,1017.43
2017-11-09T11:05:05.316Z,1017.44
2017-11-09T11:06:05.314Z,1017.43
2017-11-09T11:07:05.308Z,1017.46
2017-11-09T11:08:05.302Z,1017.43
2017-11-09T11:09:05.292Z,1017.41
2017-11-09T11:10:05.277Z,1017.44
2017-11-09T11:11:05.270Z,1017.46
2017-11-09T11:12:05.823Z,1017.44
2017-11-09T11:13:05.268Z,1017.46
2017-11-09T11:14:05.248Z,1017.45
2017-11-09T11:15:05.247Z,1017.44
2017-11-09T11:16:05.235Z,1017.41
2017-11-09T11:17:05.221Z,1017.42
2017-11-09T11:18:05.227Z,1017.40
2017-11-09T11:19:05.209Z,1017.37
2017-11-09T11:20:05.205Z,1017.39
2017-11-09T11:21:05.196Z,1017.40
2017-11-09T11:22:05.192Z,1017.41
2017-11-09T11:23:05.186Z,1017.37
2017-11-09T11:24:05.180Z,1017.36
2017-11-09T11:25:05.171Z,1017.39
2017-11-09T11:26:05.160Z,1017.32
2017-11-09T11:27:05.851Z,1017.27
2017-11-09T11:28:05.162Z,1017.27
2017-11-09T11:29:05.138Z,1017.26
2017-11-09T11:30:05.139Z,1017.30
2017-11-09T11:31:05.126Z,1017.29
2017-11-09T11:32:05.826Z,1017.30
2017-11-09T11:33:05.124Z,1017.27
2017-11-09T11:34:05.097Z,1017.34
2017-11-09T11:35:05.095Z,1017.33
2017-11-09T11:36:05.092Z,1017.32
2017-11-09T11:37:05.094Z,1017.33
2017-11-09T11:38:05.081Z,1017.29
2017-11-09T11:39:05.063Z,1017.27
2017-11-09T11:40:05.061Z,1017.25
2017-11-09T11:41:05.836Z,1017.26
2017-11-09T11:42:05.048Z,1017.23
2017-11-09T11:43:05.039Z,1017.27
2017-11-09T11:44:05.035Z,1017.29
2017-11-09T11:45:05.028Z,1017.28
2017-11-09T11:46:05.026Z,1017.27
2017-11-09T11:47:05.021Z,1017.25
2017-11-09T11:48:05.005Z,1017.23
2017-11-09T11:49:05.000Z,1017.22
2017-11-09T11:50:04.994Z,1017.24
2017-11-09T11:51:05.892Z,1017.27
2017-11-09T11:52:04.994Z,1017.22
2017-11-09T11:53:04.983Z,1017.21
2017-11-09T11:54:04.972Z,1017.18
2017-11-09T11:55:04.962Z,1017.22
2017-11-09T11:56:04.948Z,1017.17
2017-11-09T11:57:04.942Z,1017.17
2017-11-09T11:58:04.941Z,1017.14
2017-11-09T11:59:04.930Z,1017.12
2017-11-09T12:00:04.965Z,1017.12
2017-11-09T12:01:04.920Z,1017.08
2017-11-09T12:02:04.927Z,1017.09
2017-11-09T12:03:04.905Z,1017.09
2017-11-09T12:04:04.907Z,1017.08
2017-11-09T12:05:04.893Z,1017.08